createdAt,value
2023-01-27T00:07:27.344Z,3.92
2023-01-27T00:09:54.199Z,6.85
2023-01-27T00:12:41.618Z,7.38
2023-01-27T02:18:05.918Z,3.81
2023-01-27T02:20:46.818Z,6.96
2023-01-27T02:23:38.860Z,7.58
2023-01-27T02:26:22.504Z,7.92
2023-01-27T02:28:59.818Z,8.06
2023-01-27T02:31:27.990Z,8.14
2023-01-27T02:33:59.771Z,8.16
2023-01-27T02:36:27.587Z,8.20
2023-01-27T02:38:55.108Z,8.21
2023-01-27T02:41:42.474Z,8.17
2023-01-27T02:44:11.096Z,8.19
2023-01-27T02:46:38.510Z,8.27
2023-01-27T02:49:07.159Z,8.31
2023-01-27T02:51:36.394Z,8.42
2023-01-27T02:54:03.250Z,8.47
2023-01-27T02:56:30.341Z,8.48
2023-01-27T02:59:01.868Z,8.43
2023-01-27T03:01:34.232Z,8.32
2023-01-27T03:04:01.776Z,8.23
2023-01-27T03:06:33.201Z,8.17
2023-01-27T03:09:00.373Z,8.17
2023-01-27T03:11:46.092Z,8.18
2023-01-27T03:14:13.732Z,8.20
2023-01-27T03:16:59.403Z,8.24
2023-01-27T03:19:26.242Z,8.27
2023-01-27T03:21:53.510Z,8.34
2023-01-27T03:24:21.004Z,8.45
2023-01-27T03:26:48.559Z,8.57
2023-01-27T03:29:39.612Z,8.73
2023-01-27T03:32:06.905Z,8.88
2023-01-27T03:34:34.386Z,9.01
2023-01-27T03:37:27.758Z,9.14
2023-01-27T03:40:14.467Z,9.26
2023-01-27T03:42:59.623Z,9.34
2023-01-27T03:45:46.155Z,9.37
2023-01-27T03:48:13.986Z,9.45
2023-01-27T03:50:52.466Z,9.57
2023-01-27T03:53:20.165Z,9.69
2023-01-27T03:55:47.361Z,9.75
2023-01-27T03:58:18.877Z,9.78
2023-01-27T04:00:50.003Z,9.80
2023-01-27T04:03:35.280Z,9.84
2023-01-27T04:06:22.835Z,9.91
2023-01-27T04:08:49.922Z,9.98
2023-01-27T04:11:35.449Z,10.00
2023-01-27T04:14:05.349Z,10.02
2023-01-27T04:16:32.488Z,10.01
2023-01-27T04:18:59.350Z,10.05
2023-01-27T04:21:26.143Z,10.12
2023-01-27T04:23:53.220Z,10.19
2023-01-27T04:26:20.657Z,10.23
2023-01-27T04:28:48.288Z,10.27
2023-01-27T04:31:15.562Z,10.32
2023-01-27T04:33:43.173Z,10.34
2023-01-27T04:36:11.993Z,10.34
2023-01-27T04:38:38.905Z,10.34
2023-01-27T04:41:05.675Z,10.34
2023-01-27T04:43:32.592Z,10.31
2023-01-27T04:45:59.191Z,10.25
2023-01-27T04:48:26.922Z,10.12
2023-01-27T04:50:54.038Z,10.01
2023-01-27T04:53:20.726Z,10.01
2023-01-27T04:55:50.539Z,10.06
2023-01-27T04:58:17.799Z,10.10
2023-01-27T05:00:44.628Z,9.99
2023-01-27T05:03:13.491Z,9.78
2023-01-27T05:05:40.373Z,9.71
2023-01-27T05:08:09.460Z,9.75
2023-01-27T05:10:36.434Z,9.82
2023-01-27T05:13:03.257Z,9.80
2023-01-27T05:15:30.489Z,9.77
2023-01-27T05:17:57.262Z,9.81
2023-01-27T05:20:24.907Z,9.86
2023-01-27T05:23:12.012Z,9.94
2023-01-27T05:25:42.307Z,10.03
2023-01-27T05:28:08.990Z,10.09
2023-01-27T05:30:36.133Z,10.13
2023-01-27T05:33:03.043Z,10.17
2023-01-27T05:35:32.596Z,10.16
2023-01-27T05:37:59.438Z,10.17
2023-01-27T05:40:26.438Z,10.15
2023-01-27T05:42:54.355Z,10.09
2023-01-27T05:45:21.244Z,10.06
2023-01-27T20:01:59.395Z,5.89
2023-01-27T20:04:28.254Z,7.74
2023-01-27T20:06:56.599Z,7.78
2023-01-27T20:09:26.822Z,7.81
2023-01-27T20:11:55.011Z,7.86
2023-01-27T20:14:26.450Z,7.87
2023-01-27T20:16:55.242Z,7.80
2023-01-27T20:19:24.029Z,7.79
2023-01-27T20:21:54.132Z,7.85
2023-01-27T20:24:22.900Z,7.90
2023-01-27T20:26:52.666Z,7.88
2023-01-27T20:29:20.849Z,7.89
2023-01-27T20:31:49.824Z,7.87
2023-01-27T20:34:18.516Z,7.77
2023-01-27T20:36:47.152Z,7.77
2023-01-27T20:39:15.482Z,7.82
2023-01-27T20:41:45.499Z,7.78
2023-01-27T20:44:14.077Z,7.73
2023-01-27T20:46:42.875Z,7.71
2023-01-27T20:49:11.251Z,7.71
2023-01-27T20:51:39.529Z,7.64
2023-01-27T20:54:07.903Z,7.52
2023-01-27T20:56:36.147Z,7.46
2023-01-27T20:59:04.569Z,7.43
2023-01-27T21:01:33.439Z,7.43
2023-01-27T21:04:01.641Z,7.44
2023-01-27T21:06:30.214Z,7.53
2023-01-27T21:08:58.698Z,7.61
2023-01-27T21:11:27.506Z,7.71
2023-01-27T21:13:55.980Z,7.74
2023-01-27T21:16:24.261Z,7.82
2023-01-27T21:18:52.526Z,7.95
2023-01-27T21:21:22.148Z,8.06
2023-01-27T21:23:50.454Z,8.14
2023-01-27T21:26:18.704Z,8.19
2023-01-27T21:28:47.395Z,8.19
2023-01-27T21:31:17.270Z,8.22
2023-01-27T21:33:50.393Z,8.25
2023-01-27T21:36:19.695Z,8.21
2023-01-27T21:38:50.563Z,8.20
2023-01-27T21:41:38.298Z,8.21
2023-01-27T21:44:25.660Z,8.22
2023-01-27T21:46:54.060Z,8.20
2023-01-27T21:49:22.549Z,8.26
2023-01-27T21:51:50.935Z,8.38
2023-01-27T21:54:19.259Z,8.52
2023-01-27T21:56:47.688Z,8.59
2023-01-27T21:59:15.985Z,8.59
2023-01-27T22:01:44.600Z,8.56
2023-01-27T22:04:12.798Z,8.48
